createdAt,value
2023-01-27T00:09:54.611Z,17.5
2023-01-27T00:25:07.698Z,16.9
2023-01-27T00:40:17.373Z,15.7
2023-01-27T00:55:26.128Z,16.3
2023-01-27T01:10:35.773Z,16.2
2023-01-27T01:25:48.059Z,16
2023-01-27T01:40:57.745Z,15.3
2023-01-27T01:56:07.267Z,12.6
2023-01-27T02:11:16.401Z,14.9
2023-01-27T02:26:25.738Z,14.4
2023-01-27T02:41:34.504Z,12.6
2023-01-27T02:56:45.220Z,12.9
2023-01-27T03:11:54.488Z,11.5
2023-01-27T03:27:04.657Z,11.6
2023-01-27T03:42:14.390Z,11
2023-01-27T03:57:24.208Z,11.2
2023-01-27T04:12:33.859Z,12.2
2023-01-27T04:27:43.681Z,10.4
2023-01-27T04:42:52.926Z,9.8
2023-01-27T04:58:03.041Z,7.3
2023-01-27T05:13:12.689Z,6.3
2023-01-27T05:28:22.373Z,6.2
2023-01-27T05:43:31.978Z,7.3
2023-01-27T05:58:41.360Z,5.3
2023-01-27T06:13:50.892Z,4.1
2023-01-27T06:29:00.138Z,4.2
2023-01-27T06:44:08.818Z,3.7
2023-01-27T06:59:18.800Z,3.5
2023-01-27T07:14:27.894Z,3
2023-01-27T07:29:37.314Z,2.6
2023-01-27T07:44:48.028Z,3.2
2023-01-27T07:59:58.017Z,2.5
2023-01-27T08:15:07.383Z,2.3
2023-01-27T08:30:17.077Z,3
2023-01-27T08:45:26.671Z,2.4
2023-01-27T09:00:36.007Z,2.2
2023-01-27T09:15:48.349Z,3.1
2023-01-27T09:30:57.564Z,2.8
2023-01-27T09:46:08.084Z,2.3
2023-01-27T10:01:17.908Z,2.8
2023-01-27T10:16:28.577Z,2.2
2023-01-27T10:31:38.637Z,2.9
2023-01-27T10:46:49.229Z,2.5
2023-01-27T11:01:58.897Z,2.4
2023-01-27T11:17:08.342Z,2.4
2023-01-27T11:32:18.283Z,2
2023-01-27T11:47:28.051Z,2
2023-01-27T12:02:37.900Z,2.1
2023-01-27T12:17:47.281Z,2.6
2023-01-27T12:32:57.614Z,3.2
2023-01-27T12:48:07.294Z,3.1
2023-01-27T13:03:16.875Z,2.1
2023-01-27T13:18:26.763Z,2.6
2023-01-27T13:33:36.324Z,2.9
2023-01-27T13:48:45.745Z,1.7
2023-01-27T14:03:55.226Z,2.5
2023-01-27T14:19:04.280Z,2.5
2023-01-27T14:34:14.056Z,2.4
2023-01-27T14:50:00.924Z,3
2023-01-27T15:05:12.038Z,2.3
2023-01-27T15:20:22.733Z,2.7
2023-01-27T15:35:31.985Z,2.6
2023-01-27T15:50:41.057Z,2.2
2023-01-27T16:05:50.313Z,2.6
2023-01-27T16:20:59.786Z,2.6
2023-01-27T16:36:09.360Z,4
2023-01-27T16:51:21.071Z,2.9
2023-01-27T17:06:31.593Z,2.5
2023-01-27T17:21:41.604Z,2.5
2023-01-27T17:36:50.664Z,2.7
2023-01-27T17:52:00.502Z,3
2023-01-27T18:07:09.750Z,3
2023-01-27T18:22:18.381Z,2.8
2023-01-27T18:37:28.062Z,2.8
2023-01-27T18:52:37.106Z,2.8
2023-01-27T19:07:47.422Z,3.3
2023-01-27T19:22:57.010Z,2.9
2023-01-27T19:38:06.221Z,3
2023-01-27T19:53:15.861Z,2.9
2023-01-27T20:08:25.316Z,2.2
2023-01-27T20:23:34.614Z,2.8
2023-01-27T20:38:44.138Z,3.2
2023-01-27T20:53:53.558Z,3
2023-01-27T21:09:02.917Z,3
2023-01-27T21:24:12.646Z,2.8
2023-01-27T21:39:22.146Z,2.5
2023-01-27T21:54:35.207Z,2.4
2023-01-27T22:09:44.601Z,2.4
2023-01-27T22:24:54.320Z,4.3
2023-01-27T22:40:02.941Z,3.3
2023-01-27T22:55:13.239Z,2.1
2023-01-27T23:10:24.182Z,2.9
2023-01-27T23:25:33.400Z,2.3
2023-01-27T23:40:44.590Z,2.7
2023-01-27T23:55:53.725Z,2.5
